createdAt,value
2023-02-14T00:00:26.000Z,0
2023-02-14T00:01:42.000Z,0
2023-02-14T00:02:58.000Z,0
2023-02-14T00:04:14.000Z,0
2023-02-14T00:05:30.000Z,0
2023-02-14T00:06:47.000Z,0
2023-02-14T00:08:03.000Z,0
2023-02-14T00:09:19.000Z,0
2023-02-14T00:10:35.000Z,0
2023-02-14T00:11:51.000Z,0
2023-02-14T00:13:07.000Z,0
2023-02-14T00:14:24.000Z,0
2023-02-14T00:15:39.000Z,0
2023-02-14T00:16:55.000Z,0
2023-02-14T00:18:11.000Z,0
2023-02-14T00:19:27.000Z,0
2023-02-14T00:20:44.000Z,0
2023-02-14T00:22:00.000Z,0
2023-02-14T00:23:16.000Z,0
2023-02-14T00:24:32.000Z,0
2023-02-14T00:25:48.000Z,0
2023-02-14T00:27:05.000Z,0
2023-02-14T00:28:21.000Z,0
2023-02-14T00:29:37.000Z,0
2023-02-14T00:30:53.000Z,0
2023-02-14T00:32:08.000Z,0
2023-02-14T00:33:25.000Z,0
2023-02-14T00:34:41.000Z,0
2023-02-14T00:35:57.000Z,0
2023-02-14T00:37:13.000Z,0
2023-02-14T00:38:29.000Z,0
2023-02-14T00:39:45.000Z,0
2023-02-14T00:41:02.000Z,0
2023-02-14T00:42:18.000Z,0
2023-02-14T00:43:34.000Z,0
2023-02-14T00:44:50.000Z,0
2023-02-14T00:46:06.000Z,0
2023-02-14T00:47:23.000Z,0
2023-02-14T00:48:38.000Z,0
2023-02-14T00:49:54.000Z,0
2023-02-14T00:51:10.663Z,0
2023-02-14T00:52:26.000Z,0
2023-02-14T00:53:43.000Z,0
2023-02-14T00:54:59.000Z,0
2023-02-14T00:56:15.000Z,0
2023-02-14T00:57:31.000Z,0
2023-02-14T00:58:47.000Z,0
2023-02-14T01:00:04.000Z,0
2023-02-14T01:01:20.000Z,0
2023-02-14T01:02:36.000Z,0
2023-02-14T01:03:52.000Z,0
2023-02-14T01:05:07.000Z,0
2023-02-14T01:06:23.000Z,0
2023-02-14T01:07:40.000Z,0
2023-02-14T01:08:56.000Z,0
2023-02-14T01:10:12.000Z,0
2023-02-14T01:11:28.000Z,0
2023-02-14T01:12:44.000Z,0
2023-02-14T01:14:01.000Z,0
2023-02-14T01:15:17.000Z,0
2023-02-14T01:16:33.000Z,0
2023-02-14T01:17:49.000Z,0
2023-02-14T01:19:05.000Z,0
2023-02-14T01:20:22.000Z,0
2023-02-14T01:21:37.000Z,0
2023-02-14T01:22:53.000Z,0
2023-02-14T01:24:09.000Z,0
2023-02-14T01:25:25.000Z,0
2023-02-14T01:26:42.000Z,0
2023-02-14T01:27:58.000Z,0
2023-02-14T01:29:14.000Z,0
2023-02-14T01:30:30.000Z,0
2023-02-14T01:31:46.000Z,0
2023-02-14T01:33:02.000Z,0
2023-02-14T01:34:19.000Z,0
2023-02-14T01:35:35.000Z,0
2023-02-14T01:36:51.000Z,0
2023-02-14T01:38:06.000Z,0
2023-02-14T01:39:22.000Z,0
2023-02-14T01:40:39.000Z,0
2023-02-14T01:41:55.000Z,0
2023-02-14T01:43:11.000Z,0
2023-02-14T01:44:27.000Z,0
2023-02-14T01:45:43.000Z,0
2023-02-14T01:47:00.000Z,0
2023-02-14T01:48:16.000Z,0
2023-02-14T01:49:32.000Z,0
2023-02-14T01:50:48.000Z,0
2023-02-14T01:52:04.000Z,0
2023-02-14T01:53:21.000Z,0
2023-02-14T01:54:36.000Z,0
2023-02-14T01:55:52.000Z,0
2023-02-14T01:57:08.000Z,0
2023-02-14T01:58:24.000Z,0
2023-02-14T01:59:40.000Z,0
2023-02-14T02:00:57.000Z,0
2023-02-14T02:02:13.000Z,0
2023-02-14T02:03:29.000Z,0
2023-02-14T02:04:45.000Z,0
2023-02-14T02:06:01.000Z,0
2023-02-14T02:07:18.000Z,0
2023-02-14T02:08:34.000Z,0
2023-02-14T02:09:50.000Z,0
2023-02-14T02:11:05.000Z,0
2023-02-14T02:12:21.000Z,0
2023-02-14T02:13:38.000Z,0
2023-02-14T02:14:54.000Z,0
2023-02-14T02:16:10.000Z,0
2023-02-14T02:17:26.000Z,0
2023-02-14T02:18:42.000Z,0
2023-02-14T02:19:59.000Z,0
2023-02-14T02:21:15.000Z,0
2023-02-14T02:22:31.000Z,0
2023-02-14T02:23:47.000Z,0
2023-02-14T02:25:03.000Z,0
2023-02-14T02:26:19.000Z,0
2023-02-14T02:27:35.000Z,0
2023-02-14T02:28:51.000Z,0
2023-02-14T02:30:07.000Z,0
2023-02-14T02:31:23.000Z,0
2023-02-14T02:32:39.000Z,0
2023-02-14T02:33:56.000Z,0
2023-02-14T02:35:12.000Z,0
2023-02-14T02:36:28.000Z,0
2023-02-14T02:37:44.000Z,0
2023-02-14T02:39:00.000Z,0
2023-02-14T02:40:17.000Z,0
2023-02-14T02:41:33.000Z,0
2023-02-14T02:42:49.000Z,0
2023-02-14T02:44:04.000Z,0
2023-02-14T02:45:20.000Z,0
2023-02-14T02:46:37.000Z,0
2023-02-14T02:47:53.000Z,0
2023-02-14T02:49:09.000Z,0
2023-02-14T02:50:25.000Z,0
2023-02-14T02:51:41.000Z,0
2023-02-14T02:52:57.000Z,0
2023-02-14T02:54:14.000Z,0
2023-02-14T02:55:30.000Z,0
2023-02-14T02:56:46.000Z,0
2023-02-14T02:58:02.000Z,0
2023-02-14T02:59:18.000Z,0
2023-02-14T03:00:34.000Z,0
2023-02-14T03:01:50.000Z,0
2023-02-14T03:03:06.000Z,0
2023-02-14T03:04:22.000Z,0
2023-02-14T03:05:38.000Z,0
2023-02-14T03:06:55.000Z,0
2023-02-14T03:08:10.000Z,0
2023-02-14T03:09:26.000Z,0
2023-02-14T03:10:42.000Z,0
2023-02-14T03:11:58.000Z,0
2023-02-14T03:13:15.000Z,0
2023-02-14T03:14:31.000Z,0
2023-02-14T03:15:47.000Z,0
2023-02-14T03:17:03.000Z,0
2023-02-14T03:18:19.000Z,0
2023-02-14T03:19:35.000Z,0
2023-02-14T03:20:52.000Z,0
2023-02-14T03:22:08.000Z,0
2023-02-14T03:23:24.000Z,0
2023-02-14T03:24:39.000Z,0
2023-02-14T03:25:55.000Z,0
2023-02-14T03:27:12.000Z,0
2023-02-14T03:28:28.000Z,0
2023-02-14T03:29:44.529Z,0
2023-02-14T03:31:00.000Z,0
2023-02-14T03:32:16.000Z,0
2023-02-14T03:33:33.000Z,0
2023-02-14T03:34:49.000Z,0
2023-02-14T03:36:05.000Z,0
2023-02-14T03:37:21.000Z,0
2023-02-14T03:38:37.000Z,0
2023-02-14T03:39:54.000Z,0
2023-02-14T03:41:09.000Z,0
2023-02-14T03:42:25.000Z,0
2023-02-14T03:43:41.000Z,0
2023-02-14T03:44:57.000Z,0
2023-02-14T03:46:14.000Z,0
2023-02-14T03:47:30.000Z,0
2023-02-14T03:48:46.000Z,0
2023-02-14T03:50:02.000Z,0
2023-02-14T03:51:18.000Z,0
2023-02-14T03:52:34.000Z,0
2023-02-14T03:53:51.000Z,0
2023-02-14T03:55:07.000Z,0
2023-02-14T03:56:23.000Z,0
2023-02-14T03:57:38.000Z,0
2023-02-14T03:58:54.000Z,0
2023-02-14T04:00:11.000Z,0
2023-02-14T04:01:27.000Z,0
2023-02-14T04:02:43.000Z,0
2023-02-14T04:03:59.000Z,0
2023-02-14T04:05:15.000Z,0
2023-02-14T04:06:32.000Z,0
2023-02-14T04:07:48.000Z,0
2023-02-14T04:09:04.000Z,0
2023-02-14T04:10:20.000Z,0
2023-02-14T04:11:36.000Z,0
2023-02-14T04:12:52.000Z,0
2023-02-14T04:14:08.000Z,0
2023-02-14T04:15:24.000Z,0
2023-02-14T04:16:40.000Z,0
2023-02-14T04:17:56.000Z,0
2023-02-14T04:19:12.000Z,0
2023-02-14T04:20:29.000Z,0
2023-02-14T04:21:45.000Z,0
2023-02-14T04:23:01.000Z,0
2023-02-14T04:24:17.000Z,0
2023-02-14T04:25:33.000Z,0
2023-02-14T04:26:50.000Z,0
2023-02-14T04:28:06.000Z,0
2023-02-14T04:29:22.000Z,0
2023-02-14T04:30:37.000Z,0
2023-02-14T04:31:53.000Z,0
2023-02-14T04:33:10.000Z,0
2023-02-14T04:34:26.000Z,0
2023-02-14T04:35:42.000Z,0
2023-02-14T04:36:58.000Z,0
2023-02-14T04:38:14.000Z,0
2023-02-14T04:39:30.000Z,0
2023-02-14T04:40:47.000Z,0
2023-02-14T04:42:03.000Z,0
2023-02-14T04:43:19.000Z,0
2023-02-14T04:44:35.000Z,0
2023-02-14T04:45:51.000Z,0
2023-02-14T04:47:07.000Z,0
2023-02-14T04:48:23.000Z,0
2023-02-14T04:49:39.000Z,0
2023-02-14T04:50:55.000Z,0
2023-02-14T04:52:11.000Z,0
2023-02-14T04:53:28.000Z,0
2023-02-14T04:54:44.000Z,0
2023-02-14T04:56:00.000Z,0
2023-02-14T04:57:16.000Z,0
2023-02-14T04:58:32.000Z,0
2023-02-14T04:59:49.000Z,0
2023-02-14T05:01:05.000Z,0
2023-02-14T05:02:21.000Z,0
2023-02-14T05:03:36.000Z,0
2023-02-14T05:04:52.000Z,0
2023-02-14T05:06:08.000Z,0
2023-02-14T05:07:25.000Z,0
2023-02-14T05:08:41.000Z,0
2023-02-14T05:09:57.000Z,0
2023-02-14T05:11:13.000Z,0
2023-02-14T05:12:29.000Z,0
2023-02-14T05:13:46.000Z,0
2023-02-14T05:15:02.000Z,0
2023-02-14T05:16:18.000Z,0
2023-02-14T05:17:34.000Z,0
2023-02-14T05:18:50.000Z,0
2023-02-14T05:20:06.000Z,0
2023-02-14T05:21:22.000Z,0
2023-02-14T05:22:38.000Z,0
2023-02-14T05:23:54.000Z,0
2023-02-14T05:25:10.000Z,0
2023-02-14T05:26:27.000Z,0
2023-02-14T05:27:43.000Z,0
2023-02-14T05:28:59.000Z,0
2023-02-14T05:30:15.000Z,0
2023-02-14T05:31:31.000Z,0
2023-02-14T05:32:47.000Z,0
2023-02-14T05:34:04.000Z,0
2023-02-14T05:35:20.000Z,0
2023-02-14T05:36:35.000Z,0
2023-02-14T05:37:51.000Z,0
2023-02-14T05:39:07.000Z,0
2023-02-14T05:41:40.000Z,0
2023-02-14T05:42:56.000Z,0
2023-02-14T05:44:12.000Z,0
2023-02-14T05:45:28.000Z,0
2023-02-14T05:46:45.000Z,0
2023-02-14T05:48:01.000Z,0
2023-02-14T05:49:17.000Z,0
2023-02-14T05:50:33.000Z,0
2023-02-14T05:51:49.000Z,0
2023-02-14T05:53:05.000Z,0
2023-02-14T05:54:21.000Z,0
2023-02-14T05:55:37.000Z,0
2023-02-14T05:56:53.000Z,0
2023-02-14T05:58:09.000Z,0
2023-02-14T05:59:25.000Z,0
2023-02-14T06:00:42.000Z,0
2023-02-14T06:01:58.000Z,0
2023-02-14T06:03:14.000Z,0
2023-02-14T06:04:30.000Z,0
2023-02-14T06:05:46.000Z,0
2023-02-14T06:07:03.000Z,0
2023-02-14T06:08:19.000Z,0
2023-02-14T06:09:34.000Z,0
2023-02-14T06:10:50.000Z,0
2023-02-14T06:12:06.000Z,0
2023-02-14T06:13:23.000Z,0
2023-02-14T06:14:39.000Z,0
2023-02-14T06:15:55.000Z,0
2023-02-14T06:17:11.000Z,0
2023-02-14T06:18:27.000Z,0
2023-02-14T06:19:44.000Z,0
2023-02-14T06:21:00.000Z,0
2023-02-14T06:22:16.000Z,0
2023-02-14T06:23:32.000Z,0
2023-02-14T06:24:48.000Z,0
2023-02-14T06:26:04.000Z,0
2023-02-14T06:27:20.000Z,0
2023-02-14T06:28:36.000Z,0
2023-02-14T06:29:52.000Z,0
2023-02-14T06:31:08.000Z,0
2023-02-14T06:32:24.000Z,0
2023-02-14T06:33:41.000Z,0
2023-02-14T06:34:57.000Z,0
2023-02-14T06:36:13.000Z,5
2023-02-14T06:37:29.000Z,5
2023-02-14T06:38:45.000Z,5
2023-02-14T06:40:02.000Z,5
2023-02-14T06:41:18.000Z,5
2023-02-14T06:42:33.000Z,11
2023-02-14T06:43:49.000Z,11
2023-02-14T06:45:05.000Z,11
2023-02-14T06:46:22.000Z,11
2023-02-14T06:47:38.000Z,16
2023-02-14T06:48:54.000Z,16
2023-02-14T06:50:10.000Z,16
2023-02-14T06:51:26.000Z,22
2023-02-14T06:52:43.000Z,22
2023-02-14T06:53:59.000Z,22
2023-02-14T06:55:15.000Z,28
2023-02-14T06:56:31.000Z,28
2023-02-14T06:57:47.000Z,33
2023-02-14T06:59:03.000Z,33
2023-02-14T07:00:19.000Z,33
2023-02-14T07:01:35.000Z,39
2023-02-14T07:02:51.000Z,45
2023-02-14T07:04:07.000Z,45
2023-02-14T07:05:23.000Z,56
2023-02-14T07:06:40.000Z,61
2023-02-14T07:07:56.000Z,78
2023-02-14T07:09:12.000Z,84
2023-02-14T07:10:28.000Z,90
2023-02-14T07:11:44.000Z,95
2023-02-14T07:13:01.000Z,101
2023-02-14T07:14:17.000Z,101
2023-02-14T07:15:32.000Z,106
2023-02-14T07:16:48.000Z,106
2023-02-14T07:18:04.000Z,106
2023-02-14T07:19:21.000Z,95
2023-02-14T07:20:37.000Z,84
2023-02-14T07:21:53.000Z,84
2023-02-14T07:23:08.000Z,84
2023-02-14T07:24:24.000Z,84
2023-02-14T07:25:41.000Z,84
2023-02-14T07:26:57.000Z,90
2023-02-14T07:28:13.000Z,90
2023-02-14T07:29:29.000Z,90
2023-02-14T07:30:45.000Z,90
2023-02-14T07:32:02.000Z,95
2023-02-14T07:33:18.000Z,95
2023-02-14T07:34:34.000Z,101
2023-02-14T07:35:50.000Z,101
2023-02-14T07:37:06.000Z,106
2023-02-14T07:38:22.000Z,106
2023-02-14T07:39:38.000Z,112
2023-02-14T07:40:54.000Z,112
2023-02-14T07:42:10.000Z,118
2023-02-14T07:43:26.000Z,118
2023-02-14T07:44:42.000Z,123
2023-02-14T07:45:59.000Z,129
2023-02-14T07:47:15.000Z,135
2023-02-14T07:48:31.000Z,151
2023-02-14T07:49:47.000Z,230
2023-02-14T07:51:03.000Z,281
2023-02-14T07:52:20.000Z,264
2023-02-14T07:53:36.000Z,258
2023-02-14T07:54:52.000Z,270
2023-02-14T07:56:07.000Z,264
2023-02-14T07:57:23.000Z,275
2023-02-14T07:58:40.000Z,286
2023-02-14T07:59:56.000Z,281
2023-02-14T08:01:12.000Z,219
2023-02-14T08:02:28.000Z,157
2023-02-14T08:03:44.000Z,146
2023-02-14T08:05:01.000Z,140
2023-02-14T08:06:17.000Z,140
2023-02-14T08:07:33.000Z,140
2023-02-14T08:08:49.000Z,140
2023-02-14T08:10:05.000Z,146
2023-02-14T08:11:21.000Z,146
2023-02-14T08:12:37.000Z,146
2023-02-14T08:13:53.000Z,146
2023-02-14T08:15:09.000Z,151
2023-02-14T08:16:25.000Z,151
2023-02-14T08:17:41.000Z,151
2023-02-14T08:18:58.000Z,151
2023-02-14T08:20:14.000Z,151
2023-02-14T08:21:30.000Z,157
2023-02-14T08:22:46.000Z,157
2023-02-14T08:24:02.000Z,157
2023-02-14T08:25:19.000Z,157
2023-02-14T08:26:35.000Z,157
2023-02-14T08:27:51.000Z,157
2023-02-14T08:29:06.000Z,163
2023-02-14T08:30:22.000Z,163
2023-02-14T08:31:39.000Z,163
2023-02-14T08:32:55.000Z,168
2023-02-14T08:34:11.000Z,174
2023-02-14T08:35:27.000Z,185
2023-02-14T08:36:43.000Z,219
2023-02-14T08:37:59.000Z,371
2023-02-14T08:39:16.000Z,500
2023-02-14T08:40:32.000Z,461
2023-02-14T08:41:48.000Z,405
2023-02-14T08:43:04.000Z,292
2023-02-14T08:44:20.000Z,270
2023-02-14T08:45:37.000Z,286
2023-02-14T08:46:52.000Z,309
2023-02-14T08:48:08.000Z,303
2023-02-14T08:49:24.000Z,326
2023-02-14T08:50:40.000Z,281
2023-02-14T08:51:57.000Z,230
2023-02-14T08:53:13.000Z,208
2023-02-14T08:54:29.000Z,196
2023-02-14T08:55:45.000Z,191
2023-02-14T08:57:01.000Z,185
2023-02-14T08:58:18.000Z,185
2023-02-14T08:59:34.000Z,185
2023-02-14T09:00:50.000Z,185
2023-02-14T09:02:06.000Z,185
2023-02-14T09:03:21.000Z,185
2023-02-14T09:04:38.000Z,185
2023-02-14T09:05:54.000Z,191
2023-02-14T09:07:10.000Z,191
2023-02-14T09:08:26.000Z,191
2023-02-14T09:09:42.000Z,196
2023-02-14T09:10:58.000Z,202
2023-02-14T09:12:15.000Z,202
2023-02-14T09:13:31.000Z,208
2023-02-14T09:14:47.000Z,208
2023-02-14T09:16:03.000Z,208
2023-02-14T09:17:19.000Z,213
2023-02-14T09:18:36.000Z,213
2023-02-14T09:19:51.000Z,213
2023-02-14T09:21:07.000Z,213
2023-02-14T09:22:23.000Z,213
2023-02-14T09:23:39.000Z,213
2023-02-14T09:24:56.000Z,213
2023-02-14T09:26:12.000Z,213
2023-02-14T09:27:28.000Z,213
2023-02-14T09:28:44.000Z,213
2023-02-14T09:30:00.000Z,213
2023-02-14T09:31:17.000Z,213
2023-02-14T09:32:33.000Z,213
2023-02-14T09:33:49.000Z,213
2023-02-14T09:35:05.000Z,213
2023-02-14T09:36:20.000Z,213
2023-02-14T09:37:36.000Z,213
2023-02-14T09:38:53.000Z,219
2023-02-14T09:40:09.000Z,219
2023-02-14T09:41:25.000Z,219
2023-02-14T09:42:41.000Z,219
2023-02-14T09:43:57.000Z,225
2023-02-14T09:45:14.000Z,225
2023-02-14T09:46:30.000Z,225
2023-02-14T09:47:46.000Z,230
2023-02-14T09:49:02.000Z,230
2023-02-14T09:50:18.000Z,236
2023-02-14T09:51:35.000Z,236
2023-02-14T09:52:50.000Z,241
2023-02-14T09:54:06.000Z,247
2023-02-14T09:55:22.000Z,247
2023-02-14T09:56:38.000Z,253
2023-02-14T09:57:55.000Z,264
2023-02-14T09:59:11.000Z,281
2023-02-14T10:00:27.000Z,331
2023-02-14T10:01:43.000Z,450
2023-02-14T10:02:59.000Z,652
2023-02-14T10:04:16.000Z,770
2023-02-14T10:05:32.000Z,855
2023-02-14T10:06:48.000Z,939
2023-02-14T10:08:04.000Z,967
2023-02-14T10:09:19.000Z,916
2023-02-14T10:10:35.000Z,956
2023-02-14T10:11:52.000Z,961
2023-02-14T10:13:08.000Z,905
2023-02-14T10:14:24.000Z,961
2023-02-14T10:15:40.000Z,905
2023-02-14T10:16:56.000Z,1029
2023-02-14T10:18:13.000Z,973
2023-02-14T10:19:29.000Z,1063
2023-02-14T10:20:45.000Z,1001
2023-02-14T10:22:01.000Z,1147
2023-02-14T10:23:17.000Z,1237
2023-02-14T10:24:34.000Z,1147
2023-02-14T10:25:49.000Z,1327
2023-02-14T10:32:10.000Z,1507
2023-02-14T10:33:26.000Z,1254
2023-02-14T10:34:42.000Z,1856
2023-02-14T10:35:58.000Z,1833
2023-02-14T10:37:14.000Z,1968
2023-02-14T10:38:31.000Z,1473
2023-02-14T10:41:03.000Z,1603
2023-02-14T10:43:34.000Z,1125
2023-02-14T10:44:51.000Z,1158
2023-02-14T10:46:07.000Z,1372
2023-02-14T10:47:23.000Z,1400
2023-02-14T10:48:39.000Z,1366
2023-02-14T10:49:55.000Z,1080
2023-02-14T10:51:12.000Z,1141
2023-02-14T10:52:28.000Z,1080
2023-02-14T10:53:44.000Z,1051
2023-02-14T10:55:00.000Z,1383
2023-02-14T10:56:16.000Z,1665
2023-02-14T10:57:33.000Z,1940
2023-02-14T10:58:48.000Z,1957
2023-02-14T11:00:04.000Z,1378
2023-02-14T11:01:20.000Z,1940
2023-02-14T11:02:36.000Z,2317
2023-02-14T11:03:53.000Z,2390
2023-02-14T11:05:09.000Z,2446
2023-02-14T11:06:25.000Z,2458
2023-02-14T11:07:41.000Z,1755
2023-02-14T11:08:57.000Z,1558
2023-02-14T11:10:13.000Z,2266
2023-02-14T11:11:30.000Z,2396
2023-02-14T11:12:46.000Z,2480
2023-02-14T11:14:02.000Z,2469
2023-02-14T11:15:17.000Z,2441
2023-02-14T11:16:33.000Z,2126
2023-02-14T11:17:50.000Z,1378
2023-02-14T11:19:06.000Z,1704
2023-02-14T11:20:22.000Z,2193
2023-02-14T11:21:38.000Z,2278
2023-02-14T11:22:54.000Z,2283
2023-02-14T11:24:11.000Z,2221
2023-02-14T11:25:27.000Z,2126
2023-02-14T11:26:43.000Z,2160
2023-02-14T11:27:59.000Z,1659
2023-02-14T11:29:15.000Z,1108
2023-02-14T11:30:31.000Z,1721
2023-02-14T11:31:47.000Z,1951
2023-02-14T11:33:03.000Z,1935
2023-02-14T11:34:19.000Z,1951
2023-02-14T11:35:35.000Z,1558
2023-02-14T11:36:51.000Z,663
2023-02-14T11:38:07.000Z,506
2023-02-14T11:39:23.000Z,461
2023-02-14T11:40:39.000Z,433
2023-02-14T11:41:55.000Z,416
2023-02-14T11:43:11.000Z,405
2023-02-14T11:44:28.000Z,399
2023-02-14T11:45:44.000Z,388
2023-02-14T11:47:00.000Z,382
2023-02-14T11:48:16.000Z,376
2023-02-14T11:49:32.000Z,376
2023-02-14T11:50:49.000Z,371
2023-02-14T11:52:05.000Z,365
2023-02-14T11:53:21.000Z,365
2023-02-14T11:54:36.000Z,371
2023-02-14T11:55:52.000Z,365
2023-02-14T11:57:09.000Z,365
2023-02-14T11:58:25.000Z,365
2023-02-14T11:59:41.000Z,365
2023-02-14T12:00:57.000Z,360
2023-02-14T12:02:13.000Z,360
2023-02-14T12:03:29.000Z,360
2023-02-14T12:04:46.000Z,360
2023-02-14T12:06:02.000Z,360
2023-02-14T12:07:18.541Z,360
2023-02-14T12:08:34.000Z,360
2023-02-14T12:09:50.000Z,365
2023-02-14T12:11:06.000Z,360
2023-02-14T12:12:22.000Z,365
2023-02-14T12:13:38.000Z,365
2023-02-14T12:14:54.000Z,376
2023-02-14T12:16:10.000Z,376
2023-02-14T12:17:27.000Z,382
2023-02-14T12:18:43.000Z,388
2023-02-14T12:19:59.000Z,399
2023-02-14T12:21:15.000Z,416
2023-02-14T12:22:31.000Z,433
2023-02-14T12:23:48.000Z,461
2023-02-14T12:25:04.000Z,517
2023-02-14T12:26:20.000Z,590
2023-02-14T12:27:35.000Z,686
2023-02-14T12:28:51.000Z,765
2023-02-14T12:30:07.000Z,855
2023-02-14T12:31:24.000Z,939
2023-02-14T12:32:40.000Z,990
2023-02-14T12:33:56.000Z,1035
2023-02-14T12:35:12.000Z,1051
2023-02-14T12:36:28.000Z,1051
2023-02-14T12:37:45.000Z,1029
2023-02-14T12:39:01.000Z,933
2023-02-14T12:40:17.000Z,928
2023-02-14T12:41:33.000Z,978
2023-02-14T12:42:49.000Z,995
2023-02-14T12:44:05.000Z,1012
2023-02-14T12:45:21.000Z,1023
2023-02-14T12:46:37.000Z,1035
2023-02-14T12:47:53.000Z,1096
2023-02-14T12:49:09.000Z,1125
2023-02-14T12:50:26.000Z,1102
2023-02-14T12:51:42.000Z,1085
2023-02-14T12:52:58.000Z,1192
2023-02-14T12:54:14.000Z,1231
2023-02-14T12:55:30.000Z,1108
2023-02-14T12:56:47.000Z,855
2023-02-14T12:58:03.000Z,922
2023-02-14T12:59:19.000Z,945
2023-02-14T13:00:34.000Z,866
2023-02-14T13:01:50.000Z,832
2023-02-14T13:03:06.000Z,815
2023-02-14T13:04:23.000Z,815
2023-02-14T13:05:39.000Z,804
2023-02-14T13:06:55.000Z,798
2023-02-14T13:08:11.000Z,798
2023-02-14T13:09:27.000Z,753
2023-02-14T13:10:44.000Z,703
2023-02-14T13:12:00.000Z,742
2023-02-14T13:13:16.000Z,793
2023-02-14T13:14:32.000Z,804
2023-02-14T13:15:48.000Z,832
2023-02-14T13:17:04.000Z,843
2023-02-14T13:18:20.000Z,894
2023-02-14T13:19:36.000Z,961
2023-02-14T13:20:52.000Z,1035
2023-02-14T13:22:08.000Z,1119
2023-02-14T13:24:41.205Z,1350
2023-02-14T13:25:57.000Z,1507
2023-02-14T13:27:13.000Z,1575
2023-02-14T13:28:29.000Z,1597
2023-02-14T13:29:45.000Z,1563
2023-02-14T13:31:02.000Z,1378
2023-02-14T13:32:18.000Z,877
2023-02-14T13:33:33.000Z,776
2023-02-14T13:34:49.000Z,1085
2023-02-14T13:36:05.000Z,1113
2023-02-14T13:37:22.000Z,1108
2023-02-14T13:38:38.000Z,1130
2023-02-14T13:39:54.000Z,1096
2023-02-14T13:41:10.000Z,1040
2023-02-14T13:42:26.000Z,967
2023-02-14T13:43:43.000Z,911
2023-02-14T13:44:59.000Z,894
2023-02-14T13:46:15.000Z,911
2023-02-14T13:47:31.000Z,922
2023-02-14T13:48:47.000Z,916
2023-02-14T13:50:03.000Z,877
2023-02-14T13:51:19.000Z,866
2023-02-14T13:52:35.000Z,855
2023-02-14T13:53:51.000Z,832
2023-02-14T13:55:07.000Z,680
2023-02-14T13:56:24.000Z,568
2023-02-14T13:57:40.000Z,708
2023-02-14T13:58:56.000Z,849
2023-02-14T14:00:12.000Z,860
2023-02-14T14:01:28.000Z,832
2023-02-14T14:02:44.000Z,776
2023-02-14T14:04:01.000Z,753
2023-02-14T14:05:17.000Z,753
2023-02-14T14:06:32.000Z,731
2023-02-14T14:07:48.000Z,748
2023-02-14T14:09:04.000Z,781
2023-02-14T14:10:21.000Z,793
2023-02-14T14:11:37.000Z,804
2023-02-14T14:12:53.000Z,804
2023-02-14T14:14:09.000Z,793
2023-02-14T14:15:25.000Z,781
2023-02-14T14:16:42.000Z,736
2023-02-14T14:17:58.000Z,748
2023-02-14T14:19:14.000Z,731
2023-02-14T14:20:30.000Z,652
2023-02-14T14:21:46.000Z,506
2023-02-14T14:23:02.000Z,517
2023-02-14T14:24:18.000Z,697
2023-02-14T14:25:34.000Z,731
2023-02-14T14:26:50.000Z,720
2023-02-14T14:28:06.000Z,753
2023-02-14T14:29:22.000Z,770
2023-02-14T14:30:39.000Z,781
2023-02-14T14:31:55.000Z,731
2023-02-14T14:33:11.000Z,725
2023-02-14T14:34:27.000Z,708
2023-02-14T14:35:43.000Z,703
2023-02-14T14:37:00.000Z,697
2023-02-14T14:38:16.000Z,697
2023-02-14T14:39:31.000Z,736
2023-02-14T14:40:47.000Z,748
2023-02-14T14:42:03.000Z,736
2023-02-14T14:43:20.000Z,742
2023-02-14T14:44:36.000Z,725
2023-02-14T14:45:52.000Z,697
2023-02-14T14:47:08.000Z,630
2023-02-14T14:48:24.000Z,495
2023-02-14T14:49:41.000Z,472
2023-02-14T14:50:57.000Z,568
2023-02-14T14:52:13.000Z,714
2023-02-14T14:53:29.000Z,781
2023-02-14T14:54:45.000Z,781
2023-02-14T14:56:01.000Z,787
2023-02-14T14:57:17.000Z,793
2023-02-14T14:58:33.000Z,798
2023-02-14T14:59:49.000Z,821
2023-02-14T15:01:05.000Z,849
2023-02-14T15:02:21.000Z,832
2023-02-14T15:03:38.000Z,815
2023-02-14T15:04:54.000Z,781
2023-02-14T15:06:10.000Z,753
2023-02-14T15:07:26.000Z,759
2023-02-14T15:08:42.000Z,753
2023-02-14T15:09:59.000Z,753
2023-02-14T15:11:15.000Z,765
2023-02-14T15:12:30.000Z,753
2023-02-14T15:13:46.000Z,658
2023-02-14T15:15:02.000Z,466
2023-02-14T15:16:19.000Z,376
2023-02-14T15:17:35.000Z,528
2023-02-14T15:18:51.000Z,742
2023-02-14T15:20:07.000Z,770
2023-02-14T15:21:23.000Z,742
2023-02-14T15:22:40.000Z,720
2023-02-14T15:23:56.000Z,675
2023-02-14T15:25:12.000Z,613
2023-02-14T15:26:28.000Z,562
2023-02-14T15:27:44.000Z,523
2023-02-14T15:28:59.000Z,483
2023-02-14T15:30:16.000Z,461
2023-02-14T15:31:32.000Z,461
2023-02-14T15:32:48.000Z,433
2023-02-14T15:34:04.000Z,427
2023-02-14T15:35:20.000Z,405
2023-02-14T15:36:37.000Z,376
2023-02-14T15:37:53.000Z,331
2023-02-14T15:39:09.000Z,292
2023-02-14T15:40:25.000Z,264
2023-02-14T15:41:41.000Z,247
2023-02-14T15:42:58.000Z,236
2023-02-14T15:44:14.000Z,225
2023-02-14T15:45:29.000Z,219
2023-02-14T15:46:45.000Z,213
2023-02-14T15:48:01.000Z,213
2023-02-14T15:49:18.000Z,213
2023-02-14T15:50:34.000Z,208
2023-02-14T15:51:50.000Z,202
2023-02-14T15:53:05.000Z,196
2023-02-14T15:54:21.000Z,191
2023-02-14T15:55:37.000Z,185
2023-02-14T15:56:54.000Z,180
2023-02-14T15:58:10.000Z,168
2023-02-14T15:59:26.000Z,163
2023-02-14T16:00:42.000Z,163
2023-02-14T16:01:58.000Z,151
2023-02-14T16:03:15.000Z,146
2023-02-14T16:04:31.000Z,140
2023-02-14T16:05:47.000Z,135
2023-02-14T16:07:03.000Z,135
2023-02-14T16:08:19.000Z,123
2023-02-14T16:09:35.000Z,118
2023-02-14T16:10:51.000Z,112
2023-02-14T16:12:07.000Z,106
2023-02-14T16:13:23.000Z,101
2023-02-14T16:14:39.000Z,95
2023-02-14T16:15:56.000Z,90
2023-02-14T16:17:12.000Z,84
2023-02-14T16:18:28.000Z,78
2023-02-14T16:19:44.000Z,78
2023-02-14T16:21:00.000Z,73
2023-02-14T16:22:16.000Z,67
2023-02-14T16:23:33.000Z,56
2023-02-14T16:24:49.000Z,50
2023-02-14T16:26:04.000Z,45
2023-02-14T16:27:20.000Z,45
2023-02-14T16:28:36.000Z,39
2023-02-14T16:29:53.000Z,33
2023-02-14T16:31:09.000Z,33
2023-02-14T16:32:25.000Z,28
2023-02-14T16:33:41.000Z,28
2023-02-14T16:34:57.000Z,22
2023-02-14T16:36:14.000Z,22
2023-02-14T16:37:30.000Z,22
2023-02-14T16:38:46.000Z,16
2023-02-14T16:40:02.000Z,16
2023-02-14T16:41:18.000Z,16
2023-02-14T16:42:35.000Z,11
2023-02-14T16:43:51.000Z,11
2023-02-14T16:45:07.000Z,11
2023-02-14T16:46:23.000Z,5
2023-02-14T16:47:39.000Z,5
2023-02-14T16:48:56.000Z,5
2023-02-14T16:50:12.000Z,5
2023-02-14T16:51:28.000Z,5
2023-02-14T16:52:44.000Z,0
2023-02-14T16:54:00.000Z,0
2023-02-14T16:55:17.000Z,0
2023-02-14T16:56:33.000Z,0
2023-02-14T16:57:49.000Z,0
2023-02-14T16:59:04.000Z,0
2023-02-14T17:00:20.000Z,0
2023-02-14T17:01:36.000Z,0
2023-02-14T17:02:53.000Z,0
2023-02-14T17:04:09.000Z,0
2023-02-14T17:05:25.000Z,0
2023-02-14T17:06:41.000Z,0
2023-02-14T17:07:57.000Z,0
2023-02-14T17:09:14.000Z,0
2023-02-14T17:10:30.000Z,0
2023-02-14T17:11:46.000Z,0
2023-02-14T17:13:02.000Z,0
2023-02-14T17:14:18.000Z,0
2023-02-14T17:15:34.000Z,0
2023-02-14T17:16:50.000Z,0
2023-02-14T17:18:06.000Z,0
2023-02-14T17:19:22.000Z,0
2023-02-14T17:20:38.000Z,0
2023-02-14T17:21:54.000Z,0
2023-02-14T17:23:11.000Z,0
2023-02-14T17:24:27.000Z,0
2023-02-14T17:25:43.000Z,0
2023-02-14T17:26:59.000Z,0
2023-02-14T17:28:15.000Z,0
2023-02-14T17:29:32.000Z,0
2023-02-14T17:30:48.000Z,0
2023-02-14T17:32:03.000Z,0
2023-02-14T17:33:19.000Z,0
2023-02-14T17:34:35.000Z,0
2023-02-14T17:35:52.000Z,0
2023-02-14T17:37:08.000Z,0
2023-02-14T17:38:24.000Z,0
2023-02-14T17:39:40.000Z,0
2023-02-14T17:40:56.000Z,0
2023-02-14T17:42:13.000Z,0
2023-02-14T17:43:29.000Z,0
2023-02-14T17:44:45.000Z,0
2023-02-14T17:46:01.000Z,0
2023-02-14T17:47:17.000Z,0
2023-02-14T17:48:32.000Z,0
2023-02-14T17:49:49.000Z,0
2023-02-14T17:51:05.000Z,0
2023-02-14T17:52:21.000Z,0
2023-02-14T17:53:37.000Z,0
2023-02-14T17:54:53.000Z,0
2023-02-14T17:56:10.000Z,0
2023-02-14T17:57:26.000Z,0
2023-02-14T17:58:42.000Z,0
2023-02-14T17:59:58.000Z,0
2023-02-14T18:01:14.000Z,0
2023-02-14T18:02:31.000Z,0
2023-02-14T18:03:47.000Z,0
2023-02-14T18:05:02.000Z,0
2023-02-14T18:06:18.000Z,0
2023-02-14T18:07:34.000Z,0
2023-02-14T18:08:51.000Z,0
2023-02-14T18:10:07.000Z,0